sensor_id;sensor_type;location;lat;lon;timestamp;pressure;altitude;pressure_sealevel;temperature;humidity
50484;BME280;36409;52.168;20.878;2023-04-20T00:02:06;100805.70;;;7.40;72.81
50484;BME280;36409;52.168;20.878;2023-04-20T00:04:38;100809.13;;;7.36;73.11
50484;BME280;36409;52.168;20.878;2023-04-20T00:07:11;100803.90;;;7.33;73.06
50484;BME280;36409;52.168;20.878;2023-04-20T00:09:43;100799.59;;;7.32;73.07
50484;BME280;36409;52.168;20.878;2023-04-20T00:12:16;100796.97;;;7.30;73.22
50484;BME280;36409;52.168;20.878;2023-04-20T00:14:48;100790.92;;;7.30;73.56
50484;BME280;36409;52.168;20.878;2023-04-20T00:17:21;100802.13;;;7.27;73.32
50484;BME280;36409;52.168;20.878;2023-04-20T00:19:53;100795.23;;;7.26;73.36
50484;BME280;36409;52.168;20.878;2023-04-20T00:22:25;100790.87;;;7.23;73.23
50484;BME280;36409;52.168;20.878;2023-04-20T00:25:06;100794.31;;;7.22;73.46
50484;BME280;36409;52.168;20.878;2023-04-20T00:27:40;100791.73;;;7.21;73.44
50484;BME280;36409;52.168;20.878;2023-04-20T00:30:14;100793.44;;;7.19;73.25
50484;BME280;36409;52.168;20.878;2023-04-20T00:32:46;100796.03;;;7.17;73.43
50484;BME280;36409;52.168;20.878;2023-04-20T00:35:19;100800.37;;;7.18;73.19
50484;BME280;36409;52.168;20.878;2023-04-20T00:37:51;100801.25;;;7.20;73.64
50484;BME280;36409;52.168;20.878;2023-04-20T00:40:23;100800.40;;;7.23;73.42
50484;BME280;36409;52.168;20.878;2023-04-20T00:42:55;100800.42;;;7.26;73.64
50484;BME280;36409;52.168;20.878;2023-04-20T00:45:28;100798.71;;;7.30;73.51
50484;BME280;36409;52.168;20.878;2023-04-20T00:48:01;100799.59;;;7.32;73.41
50484;BME280;36409;52.168;20.878;2023-04-20T00:50:35;100790.06;;;7.34;73.68
50484;BME280;36409;52.168;20.878;2023-04-20T00:53:10;100797.88;;;7.37;73.66
50484;BME280;36409;52.168;20.878;2023-04-20T00:55:44;100797.91;;;7.41;73.62
50484;BME280;36409;52.168;20.878;2023-04-20T00:58:16;100801.38;;;7.45;73.97
50484;BME280;36409;52.168;20.878;2023-04-20T01:00:48;100807.45;;;7.49;73.81
50484;BME280;36409;52.168;20.878;2023-04-20T01:03:21;100794.50;;;7.50;73.64
50484;BME280;36409;52.168;20.878;2023-04-20T01:05:53;100797.12;;;7.53;74.19
50484;BME280;36409;52.168;20.878;2023-04-20T01:08:28;100801.45;;;7.56;74.16
50484;BME280;36409;52.168;20.878;2023-04-20T01:11:01;100804.08;;;7.59;73.42
50484;BME280;36409;52.168;20.878;2023-04-20T01:13:33;100797.98;;;7.58;73.78
50484;BME280;36409;52.168;20.878;2023-04-20T01:16:06;100795.42;;;7.62;73.97
50484;BME280;36409;52.168;20.878;2023-04-20T01:18:44;100796.30;;;7.65;74.02
50484;BME280;36409;52.168;20.878;2023-04-20T01:21:18;100795.43;;;7.68;73.74
50484;BME280;36409;52.168;20.878;2023-04-20T01:23:51;100803.25;;;7.69;73.96
50484;BME280;36409;52.168;20.878;2023-04-20T01:26:24;100798.05;;;7.71;73.90
50484;BME280;36409;52.168;20.878;2023-04-20T01:28:59;100791.14;;;7.73;73.67
50484;BME280;36409;52.168;20.878;2023-04-20T01:31:31;100788.53;;;7.75;73.91
50484;BME280;36409;52.168;20.878;2023-04-20T01:34:03;100793.75;;;7.78;73.90
50484;BME280;36409;52.168;20.878;2023-04-20T01:36:35;100787.69;;;7.80;73.60
50484;BME280;36409;52.168;20.878;2023-04-20T01:39:08;100786.83;;;7.81;73.85
50484;BME280;36409;52.168;20.878;2023-04-20T01:41:40;100791.17;;;7.82;73.86
50484;BME280;36409;52.168;20.878;2023-04-20T01:44:13;100782.50;;;7.85;73.55
50484;BME280;36409;52.168;20.878;2023-04-20T01:46:46;100794.67;;;7.87;73.63
50484;BME280;36409;52.168;20.878;2023-04-20T01:49:19;100789.47;;;7.89;73.76
50484;BME280;36409;52.168;20.878;2023-04-20T01:51:51;100797.26;;;7.91;73.70
50484;BME280;36409;52.168;20.878;2023-04-20T01:54:24;100786.86;;;7.91;73.61
50484;BME280;36409;52.168;20.878;2023-04-20T01:56:58;100787.75;;;7.91;74.02
50484;BME280;36409;52.168;20.878;2023-04-20T01:59:32;100790.34;;;7.93;73.74
50484;BME280;36409;52.168;20.878;2023-04-20T02:02:05;100785.14;;;7.93;73.83
50484;BME280;36409;52.168;20.878;2023-04-20T02:04:37;100792.94;;;7.93;73.89
50484;BME280;36409;52.168;20.878;2023-04-20T02:07:09;100792.94;;;7.93;73.42
50484;BME280;36409;52.168;20.878;2023-04-20T02:09:42;100788.63;;;7.93;73.75
50484;BME280;36409;52.168;20.878;2023-04-20T02:12:14;100789.48;;;7.94;73.68
50484;BME280;36409;52.168;20.878;2023-04-20T02:14:46;100789.48;;;7.94;73.78
50484;BME280;36409;52.168;20.878;2023-04-20T02:17:18;100795.53;;;7.94;73.62
50484;BME280;36409;52.168;20.878;2023-04-20T02:19:51;100799.02;;;7.96;74.05
50484;BME280;36409;52.168;20.878;2023-04-20T02:22:23;100791.21;;;7.96;73.88
50484;BME280;36409;52.168;20.878;2023-04-20T02:24:55;100786.89;;;7.98;73.79
50484;BME280;36409;52.168;20.878;2023-04-20T02:27:27;100786.03;;;7.99;73.69
50484;BME280;36409;52.168;20.878;2023-04-20T02:30:00;100794.69;;;8.00;73.48
50484;BME280;36409;52.168;20.878;2023-04-20T02:32:33;100793.82;;;8.01;74.28
50484;BME280;36409;52.168;20.878;2023-04-20T02:35:07;100796.45;;;8.02;73.63
50484;BME280;36409;52.168;20.878;2023-04-20T02:37:40;100802.51;;;8.01;74.00
50484;BME280;36409;52.168;20.878;2023-04-20T02:40:15;100796.42;;;8.01;73.98
50484;BME280;36409;52.168;20.878;2023-04-20T02:42:47;100799.03;;;7.99;73.74
50484;BME280;36409;52.168;20.878;2023-04-20T02:45:20;100787.75;;;7.97;73.68
50484;BME280;36409;52.168;20.878;2023-04-20T02:47:52;100800.73;;;7.94;73.55
50484;BME280;36409;52.168;20.878;2023-04-20T02:50:24;100799.00;;;7.90;74.04
50484;BME280;36409;52.168;20.878;2023-04-20T02:53:04;100793.78;;;7.87;73.65
50484;BME280;36409;52.168;20.878;2023-04-20T02:55:38;100806.78;;;7.85;73.90
50484;BME280;36409;52.168;20.878;2023-04-20T02:58:22;100800.70;;;7.83;73.49
50484;BME280;36409;52.168;20.878;2023-04-20T03:01:12;100801.56;;;7.82;73.76
50484;BME280;36409;52.168;20.878;2023-04-20T03:03:45;100804.16;;;7.82;73.80
50484;BME280;36409;52.168;20.878;2023-04-20T03:06:17;100804.17;;;7.81;73.76
50484;BME280;36409;52.168;20.878;2023-04-20T03:08:54;100805.89;;;7.79;73.64
50484;BME280;36409;52.168;20.878;2023-04-20T03:11:47;100799.81;;;7.77;73.52
50484;BME280;36409;52.168;20.878;2023-04-20T03:14:50;100805.88;;;7.74;73.96
50484;BME280;36409;52.168;20.878;2023-04-20T03:17:27;100799.80;;;7.72;73.68
50484;BME280;36409;52.168;20.878;2023-04-20T03:20:00;100805.85;;;7.69;73.76
50484;BME280;36409;52.168;20.878;2023-04-20T03:22:32;100808.42;;;7.68;73.71
50484;BME280;36409;52.168;20.878;2023-04-20T03:25:06;100805.83;;;7.66;73.99
50484;BME280;36409;52.168;20.878;2023-04-20T03:27:55;100804.09;;;7.65;73.91
50484;BME280;36409;52.168;20.878;2023-04-20T03:30:28;100804.94;;;7.66;74.07
50484;BME280;36409;52.168;20.878;2023-04-20T03:33:15;100804.09;;;7.67;73.90
50484;BME280;36409;52.168;20.878;2023-04-20T03:35:48;100806.71;;;7.68;73.81
50484;BME280;36409;52.168;20.878;2023-04-20T03:38:20;100804.11;;;7.68;73.94
50484;BME280;36409;52.168;20.878;2023-04-20T03:40:52;100811.05;;;7.69;73.79
50484;BME280;36409;52.168;20.878;2023-04-20T03:43:30;100806.70;;;7.70;74.12
50484;BME280;36409;52.168;20.878;2023-04-20T03:46:03;100811.90;;;7.71;73.69
50484;BME280;36409;52.168;20.878;2023-04-20T03:48:35;100816.27;;;7.74;74.14
50484;BME280;36409;52.168;20.878;2023-04-20T03:51:07;100815.38;;;7.73;74.65
50484;BME280;36409;52.168;20.878;2023-04-20T03:53:41;100823.17;;;7.73;74.22
50484;BME280;36409;52.168;20.878;2023-04-20T03:56:14;100826.63;;;7.72;74.05
50484;BME280;36409;52.168;20.878;2023-04-20T03:58:47;100823.19;;;7.70;74.05
50484;BME280;36409;52.168;20.878;2023-04-20T04:01:24;100816.25;;;7.69;74.01
50484;BME280;36409;52.168;20.878;2023-04-20T04:03:59;100815.36;;;7.69;74.15
50484;BME280;36409;52.168;20.878;2023-04-20T04:06:35;100813.64;;;7.71;74.22
50484;BME280;36409;52.168;20.878;2023-04-20T04:09:08;100814.50;;;7.71;74.29
50484;BME280;36409;52.168;20.878;2023-04-20T04:11:43;100822.30;;;7.71;73.93
50484;BME280;36409;52.168;20.878;2023-04-20T04:14:15;100823.18;;;7.72;74.08
50484;BME280;36409;52.168;20.878;2023-04-20T04:16:47;100832.71;;;7.75;73.98
50484;BME280;36409;52.168;20.878;2023-04-20T04:19:25;100827.55;;;7.76;74.26
50484;BME280;36409;52.168;20.878;2023-04-20T04:22:00;100832.73;;;7.79;74.18
50484;BME280;36409;52.168;20.878;2023-04-20T04:24:36;100837.09;;;7.85;74.21
50484;BME280;36409;52.168;20.878;2023-04-20T04:27:11;100844.07;;;7.92;73.99
50484;BME280;36409;52.168;20.878;2023-04-20T04:29:53;100842.38;;;7.99;74.67
50484;BME280;36409;52.168;20.878;2023-04-20T04:32:27;100846.72;;;8.06;74.46
50484;BME280;36409;52.168;20.878;2023-04-20T04:35:05;100839.78;;;8.11;74.67
50484;BME280;36409;52.168;20.878;2023-04-20T04:37:38;100839.83;;;8.17;74.48
50484;BME280;36409;52.168;20.878;2023-04-20T04:40:11;100838.97;;;8.25;74.39
50484;BME280;36409;52.168;20.878;2023-04-20T04:42:50;100847.67;;;8.30;74.99
50484;BME280;36409;52.168;20.878;2023-04-20T04:45:23;100845.93;;;8.35;74.48
50484;BME280;36409;52.168;20.878;2023-04-20T04:47:56;100847.70;;;8.42;74.52
50484;BME280;36409;52.168;20.878;2023-04-20T04:50:31;100851.22;;;8.49;74.58
50484;BME280;36409;52.168;20.878;2023-04-20T04:53:05;100851.22;;;8.55;74.66
50484;BME280;36409;52.168;20.878;2023-04-20T04:55:38;100852.11;;;8.65;74.29
50484;BME280;36409;52.168;20.878;2023-04-20T04:58:10;100846.92;;;8.77;74.50
50484;BME280;36409;52.168;20.878;2023-04-20T05:00:42;100848.66;;;8.94;74.01
50484;BME280;36409;52.168;20.878;2023-04-20T05:03:17;100850.41;;;9.10;74.71
50484;BME280;36409;52.168;20.878;2023-04-20T05:05:50;100855.59;;;9.24;74.57
50484;BME280;36409;52.168;20.878;2023-04-20T05:08:22;100855.56;;;9.35;73.63
50484;BME280;36409;52.168;20.878;2023-04-20T05:10:55;100853.80;;;9.47;73.77
50484;BME280;36409;52.168;20.878;2023-04-20T05:13:28;100852.91;;;9.57;73.62
50484;BME280;36409;52.168;20.878;2023-04-20T05:16:02;100857.27;;;9.67;73.86
50484;BME280;36409;52.168;20.878;2023-04-20T05:18:35;100851.98;;;9.80;74.17
50484;BME280;36409;52.168;20.878;2023-04-20T05:21:10;100859.59;;;10.39;73.07
50484;BME280;36409;52.168;20.878;2023-04-20T05:23:45;100863.72;;;10.74;73.01
50484;BME280;36409;52.168;20.878;2023-04-20T05:26:20;100862.38;;;11.34;72.71
50484;BME280;36409;52.168;20.878;2023-04-20T05:28:55;100860.63;;;11.36;72.29
50484;BME280;36409;52.168;20.878;2023-04-20T05:31:32;100868.57;;;11.23;72.77
50484;BME280;36409;52.168;20.878;2023-04-20T05:34:06;100872.16;;;11.10;72.38
50484;BME280;36409;52.168;20.878;2023-04-20T05:36:42;100875.70;;;11.01;72.35
50484;BME280;36409;52.168;20.878;2023-04-20T05:39:14;100871.41;;;10.97;72.22
50484;BME280;36409;52.168;20.878;2023-04-20T05:41:48;100874.01;;;10.95;71.64
50484;BME280;36409;52.168;20.878;2023-04-20T05:44:22;100873.91;;;11.08;72.79
50484;BME280;36409;52.168;20.878;2023-04-20T05:46:57;100884.97;;;11.39;72.24
50484;BME280;36409;52.168;20.878;2023-04-20T05:49:30;100886.18;;;11.90;71.44
50484;BME280;36409;52.168;20.878;2023-04-20T05:52:02;100879.02;;;12.09;71.18
50484;BME280;36409;52.168;20.878;2023-04-20T05:54:34;100880.22;;;13.08;70.91
50484;BME280;36409;52.168;20.878;2023-04-20T05:57:09;100880.06;;;14.93;69.34
50484;BME280;36409;52.168;20.878;2023-04-20T05:59:42;100873.58;;;16.38;68.59
50484;BME280;36409;52.168;20.878;2023-04-20T06:02:15;100875.02;;;16.48;68.50
50484;BME280;36409;52.168;20.878;2023-04-20T06:04:47;100874.43;;;16.38;67.55
50484;BME280;36409;52.168;20.878;2023-04-20T06:07:20;100877.31;;;15.99;67.40
50484;BME280;36409;52.168;20.878;2023-04-20T06:09:52;100887.84;;;15.66;67.66
50484;BME280;36409;52.168;20.878;2023-04-20T06:12:24;100888.80;;;15.30;67.81
50484;BME280;36409;52.168;20.878;2023-04-20T06:15:00;100884.24;;;15.02;67.80
50484;BME280;36409;52.168;20.878;2023-04-20T06:17:35;100896.66;;;14.95;67.99
50484;BME280;36409;52.168;20.878;2023-04-20T06:20:11;100908.08;;;14.94;67.50
50484;BME280;36409;52.168;20.878;2023-04-20T06:22:44;100902.10;;;14.88;66.79
50484;BME280;36409;52.168;20.878;2023-04-20T06:25:17;100909.71;;;14.98;66.96
50484;BME280;36409;52.168;20.878;2023-04-20T06:27:52;100909.47;;;15.09;66.90
50484;BME280;36409;52.168;20.878;2023-04-20T06:30:24;100898.60;;;15.23;66.28
50484;BME280;36409;52.168;20.878;2023-04-20T06:32:56;100900.85;;;15.39;66.02
50484;BME280;36409;52.168;20.878;2023-04-20T06:35:36;100898.67;;;15.20;66.06
50484;BME280;36409;52.168;20.878;2023-04-20T06:38:08;100896.09;;;15.19;66.16
50484;BME280;36409;52.168;20.878;2023-04-20T06:40:41;100893.03;;;16.02;65.68
50484;BME280;36409;52.168;20.878;2023-04-20T06:43:13;100885.10;;;17.44;64.59
50484;BME280;36409;52.168;20.878;2023-04-20T06:45:46;100884.55;;;18.56;63.57
50484;BME280;36409;52.168;20.878;2023-04-20T06:48:18;100887.16;;;19.85;62.32
50484;BME280;36409;52.168;20.878;2023-04-20T06:51:02;100886.71;;;20.34;61.52
50484;BME280;36409;52.168;20.878;2023-04-20T06:53:34;100885.20;;;20.47;61.03
50484;BME280;36409;52.168;20.878;2023-04-20T06:56:07;100883.84;;;20.19;60.33
50484;BME280;36409;52.168;20.878;2023-04-20T06:58:42;100889.72;;;20.45;60.55
50484;BME280;36409;52.168;20.878;2023-04-20T07:01:17;100894.27;;;20.61;59.42
50484;BME280;36409;52.168;20.878;2023-04-20T07:03:51;100897.20;;;20.74;59.26
50484;BME280;36409;52.168;20.878;2023-04-20T07:06:23;100890.00;;;20.95;58.16
50484;BME280;36409;52.168;20.878;2023-04-20T07:08:57;100895.15;;;20.80;59.16
50484;BME280;36409;52.168;20.878;2023-04-20T07:11:32;100893.30;;;21.18;57.47
50484;BME280;36409;52.168;20.878;2023-04-20T07:14:05;100891.81;;;21.47;56.10
50484;BME280;36409;52.168;20.878;2023-04-20T07:16:37;100895.80;;;21.56;56.02
50484;BME280;36409;52.168;20.878;2023-04-20T07:19:10;100887.73;;;21.57;56.22
50484;BME280;36409;52.168;20.878;2023-04-20T07:21:43;100892.44;;;21.35;56.19
50484;BME280;36409;52.168;20.878;2023-04-20T07:24:14;100893.23;;;21.19;55.26
50484;BME280;36409;52.168;20.878;2023-04-20T07:26:46;100889.84;;;20.61;55.59
50484;BME280;36409;52.168;20.878;2023-04-20T07:29:19;100892.15;;;20.31;55.09
50484;BME280;36409;52.168;20.878;2023-04-20T07:31:53;100896.96;;;20.42;55.42
50484;BME280;36409;52.168;20.878;2023-04-20T07:34:26;100901.23;;;20.06;55.73
50484;BME280;36409;52.168;20.878;2023-04-20T07:36:58;100907.41;;;19.65;55.82
50484;BME280;36409;52.168;20.878;2023-04-20T07:39:30;100909.73;;;19.32;55.42
50484;BME280;36409;52.168;20.878;2023-04-20T07:42:04;100913.09;;;19.14;56.04
50484;BME280;36409;52.168;20.878;2023-04-20T07:44:36;100905.80;;;19.20;56.19
50484;BME280;36409;52.168;20.878;2023-04-20T07:47:10;100899.88;;;19.56;54.94
50484;BME280;36409;52.168;20.878;2023-04-20T07:49:43;100902.48;;;19.57;54.80
50484;BME280;36409;52.168;20.878;2023-04-20T07:52:15;100897.16;;;19.78;54.07
50484;BME280;36409;52.168;20.878;2023-04-20T07:54:48;100900.17;;;20.10;53.79
50484;BME280;36409;52.168;20.878;2023-04-20T07:57:20;100903.88;;;19.87;53.84
50484;BME280;36409;52.168;20.878;2023-04-20T07:59:55;100902.30;;;20.21;52.77
50484;BME280;36409;52.168;20.878;2023-04-20T08:02:27;100900.47;;;20.98;51.76
50484;BME280;36409;52.168;20.878;2023-04-20T08:05:03;100897.39;;;21.60;51.50
50484;BME280;36409;52.168;20.878;2023-04-20T08:07:36;100886.28;;;22.19;51.58
50484;BME280;36409;52.168;20.878;2023-04-20T08:10:09;100882.91;;;22.49;51.18
50484;BME280;36409;52.168;20.878;2023-04-20T08:12:45;100886.15;;;22.54;51.40
50484;BME280;36409;52.168;20.878;2023-04-20T08:15:22;100893.16;;;22.39;51.75
50484;BME280;36409;52.168;20.878;2023-04-20T08:17:54;100893.58;;;22.31;51.39
50484;BME280;36409;52.168;20.878;2023-04-20T08:20:26;100891.84;;;22.14;51.84
50484;BME280;36409;52.168;20.878;2023-04-20T08:22:59;100888.58;;;21.93;50.86
50484;BME280;36409;52.168;20.878;2023-04-20T08:25:31;100893.67;;;21.80;50.90
50484;BME280;36409;52.168;20.878;2023-04-20T08:28:04;100894.31;;;21.50;50.83
50484;BME280;36409;52.168;20.878;2023-04-20T08:30:45;100887.61;;;21.25;50.60
50484;BME280;36409;52.168;20.878;2023-04-20T08:33:17;100888.78;;;21.20;50.86
50484;BME280;36409;52.168;20.878;2023-04-20T08:35:50;100890.50;;;21.21;50.89
50484;BME280;36409;52.168;20.878;2023-04-20T08:38:22;100890.72;;;21.34;51.14
50484;BME280;36409;52.168;20.878;2023-04-20T08:41:04;100889.09;;;21.49;51.06
50484;BME280;36409;52.168;20.878;2023-04-20T08:43:36;100891.20;;;21.59;50.14
50484;BME280;36409;52.168;20.878;2023-04-20T08:46:09;100897.23;;;21.97;50.82
50484;BME280;36409;52.168;20.878;2023-04-20T08:48:42;100895.39;;;22.31;50.37
50484;BME280;36409;52.168;20.878;2023-04-20T08:51:17;100898.77;;;22.50;49.34
50484;BME280;36409;52.168;20.878;2023-04-20T08:53:49;100892.76;;;22.63;48.89
50484;BME280;36409;52.168;20.878;2023-04-20T08:56:33;100885.20;;;22.55;48.64
50484;BME280;36409;52.168;20.878;2023-04-20T08:59:09;100884.86;;;22.77;48.92
50484;BME280;36409;52.168;20.878;2023-04-20T09:01:44;100888.77;;;23.02;49.40
50484;BME280;36409;52.168;20.878;2023-04-20T09:04:18;100890.98;;;22.94;48.51
50484;BME280;36409;52.168;20.878;2023-04-20T09:06:54;100887.42;;;22.79;47.06
50484;BME280;36409;52.168;20.878;2023-04-20T09:09:27;100879.21;;;22.51;47.32
50484;BME280;36409;52.168;20.878;2023-04-20T09:12:06;100880.28;;;22.31;46.98
50484;BME280;36409;52.168;20.878;2023-04-20T09:14:45;100881.80;;;21.87;47.10
50484;BME280;36409;52.168;20.878;2023-04-20T09:17:29;100879.03;;;21.20;46.20
50484;BME280;36409;52.168;20.878;2023-04-20T09:20:02;100886.36;;;20.97;46.77
50484;BME280;36409;52.168;20.878;2023-04-20T09:22:36;100887.45;;;21.28;46.68
50484;BME280;36409;52.168;20.878;2023-04-20T09:25:16;100885.05;;;21.59;48.01
50484;BME280;36409;52.168;20.878;2023-04-20T09:27:57;100887.98;;;21.53;47.00
50484;BME280;36409;52.168;20.878;2023-04-20T09:30:39;100885.50;;;21.67;46.25
50484;BME280;36409;52.168;20.878;2023-04-20T09:33:12;100898.52;;;21.89;45.94
50484;BME280;36409;52.168;20.878;2023-04-20T09:35:45;100891.51;;;22.04;45.72
50484;BME280;36409;52.168;20.878;2023-04-20T09:38:25;100898.67;;;21.86;45.12
50484;BME280;36409;52.168;20.878;2023-04-20T09:40:59;100895.54;;;22.12;45.77
50484;BME280;36409;52.168;20.878;2023-04-20T09:43:34;100894.25;;;22.19;44.95
50484;BME280;36409;52.168;20.878;2023-04-20T09:46:08;100901.52;;;22.49;44.65
50484;BME280;36409;52.168;20.878;2023-04-20T09:48:44;100888.81;;;22.54;44.75
50484;BME280;36409;52.168;20.878;2023-04-20T09:51:17;100891.55;;;22.68;44.10
50484;BME280;36409;52.168;20.878;2023-04-20T09:53:50;100887.25;;;22.82;43.66
50484;BME280;36409;52.168;20.878;2023-04-20T09:56:24;100893.52;;;22.81;43.44
50484;BME280;36409;52.168;20.878;2023-04-20T09:58:58;100881.72;;;23.01;43.46
50484;BME280;36409;52.168;20.878;2023-04-20T10:01:32;100884.51;;;23.14;43.66
50484;BME280;36409;52.168;20.878;2023-04-20T10:04:08;100892.94;;;23.06;43.21
50484;BME280;36409;52.168;20.878;2023-04-20T10:06:54;100884.61;;;23.12;42.97
50484;BME280;36409;52.168;20.878;2023-04-20T10:09:33;100881.25;;;22.78;42.99
50484;BME280;36409;52.168;20.878;2023-04-20T10:12:08;100881.12;;;22.96;42.89
50484;BME280;36409;52.168;20.878;2023-04-20T10:14:42;100879.28;;;23.12;42.41
50484;BME280;36409;52.168;20.878;2023-04-20T10:17:15;100886.05;;;23.18;42.07
50484;BME280;36409;52.168;20.878;2023-04-20T10:19:48;100871.58;;;23.08;41.56
50484;BME280;36409;52.168;20.878;2023-04-20T10:22:28;100863.28;;;23.28;41.67
50484;BME280;36409;52.168;20.878;2023-04-20T10:25:15;100881.79;;;22.99;41.25
50484;BME280;36409;52.168;20.878;2023-04-20T10:27:56;100886.83;;;22.42;41.18
50484;BME280;36409;52.168;20.878;2023-04-20T10:30:32;100875.81;;;21.66;40.18
50484;BME280;36409;52.168;20.878;2023-04-20T10:33:04;100886.20;;;21.36;41.34
50484;BME280;36409;52.168;20.878;2023-04-20T10:35:46;100871.27;;;21.51;41.04
50484;BME280;36409;52.168;20.878;2023-04-20T10:38:30;100866.95;;;21.83;41.20
50484;BME280;36409;52.168;20.878;2023-04-20T10:41:08;100861.86;;;22.12;40.77
50484;BME280;36409;52.168;20.878;2023-04-20T10:43:40;100864.06;;;22.04;41.01
50484;BME280;36409;52.168;20.878;2023-04-20T10:46:18;100857.66;;;21.74;40.61
50484;BME280;36409;52.168;20.878;2023-04-20T10:48:56;100861.44;;;21.70;40.52
50484;BME280;36409;52.168;20.878;2023-04-20T10:51:29;100869.20;;;21.91;40.38
50484;BME280;36409;52.168;20.878;2023-04-20T10:54:03;100864.95;;;22.20;41.09
50484;BME280;36409;52.168;20.878;2023-04-20T10:56:48;100858.20;;;22.47;40.90
50484;BME280;36409;52.168;20.878;2023-04-20T10:59:22;100866.06;;;22.64;40.25
50484;BME280;36409;52.168;20.878;2023-04-20T11:01:55;100859.77;;;22.81;39.75
50484;BME280;36409;52.168;20.878;2023-04-20T11:04:32;100860.43;;;23.01;39.92
50484;BME280;36409;52.168;20.878;2023-04-20T11:07:07;100854.03;;;23.20;39.74
50484;BME280;36409;52.168;20.878;2023-04-20T11:09:41;100856.94;;;23.15;39.67
50484;BME280;36409;52.168;20.878;2023-04-20T11:12:13;100861.50;;;23.13;39.37
50484;BME280;36409;52.168;20.878;2023-04-20T11:14:53;100859.78;;;23.12;38.70
50484;BME280;36409;52.168;20.878;2023-04-20T11:17:33;100856.63;;;23.36;39.03
50484;BME280;36409;52.168;20.878;2023-04-20T11:20:09;100854.53;;;23.26;38.93
50484;BME280;36409;52.168;20.878;2023-04-20T11:22:44;100853.06;;;22.90;38.20
50484;BME280;36409;52.168;20.878;2023-04-20T11:25:27;100857.71;;;22.87;38.81
50484;BME280;36409;52.168;20.878;2023-04-20T11:28:07;100854.06;;;23.04;38.68
50484;BME280;36409;52.168;20.878;2023-04-20T11:30:40;100847.23;;;23.14;37.92
50484;BME280;36409;52.168;20.878;2023-04-20T11:33:13;100844.23;;;23.20;38.08
50484;BME280;36409;52.168;20.878;2023-04-20T11:35:46;100843.31;;;23.36;38.20
50484;BME280;36409;52.168;20.878;2023-04-20T11:38:27;100844.41;;;23.17;37.78
50484;BME280;36409;52.168;20.878;2023-04-20T11:40:59;100846.73;;;22.77;37.66
50484;BME280;36409;52.168;20.878;2023-04-20T11:43:37;100847.13;;;22.55;37.58
50484;BME280;36409;52.168;20.878;2023-04-20T11:46:16;100847.89;;;22.41;37.58
50484;BME280;36409;52.168;20.878;2023-04-20T11:48:49;100841.88;;;22.53;37.06
50484;BME280;36409;52.168;20.878;2023-04-20T11:51:21;100835.15;;;22.78;37.80
50484;BME280;36409;52.168;20.878;2023-04-20T11:53:53;100828.78;;;23.11;38.23
50484;BME280;36409;52.168;20.878;2023-04-20T11:56:25;100838.73;;;23.23;37.14
50484;BME280;36409;52.168;20.878;2023-04-20T11:58:59;100829.34;;;23.32;37.08
50484;BME280;36409;52.168;20.878;2023-04-20T12:01:34;100833.81;;;23.46;37.14
50484;BME280;36409;52.168;20.878;2023-04-20T12:04:06;100828.50;;;23.60;36.96
50484;BME280;36409;52.168;20.878;2023-04-20T12:06:41;100834.20;;;23.69;36.81
50484;BME280;36409;52.168;20.878;2023-04-20T12:09:13;100827.63;;;23.60;37.02
50484;BME280;36409;52.168;20.878;2023-04-20T12:11:46;100828.32;;;23.64;37.01
50484;BME280;36409;52.168;20.878;2023-04-20T12:14:18;100830.39;;;23.58;36.01
50484;BME280;36409;52.168;20.878;2023-04-20T12:16:50;100826.41;;;23.51;35.78
50484;BME280;36409;52.168;20.878;2023-04-20T12:19:26;100830.59;;;23.41;36.59
50484;BME280;36409;52.168;20.878;2023-04-20T12:21:58;100828.49;;;23.01;35.91
50484;BME280;36409;52.168;20.878;2023-04-20T12:24:33;100826.36;;;22.61;35.94
50484;BME280;36409;52.168;20.878;2023-04-20T12:27:05;100819.59;;;22.56;36.19
50484;BME280;36409;52.168;20.878;2023-04-20T12:29:37;100825.75;;;22.56;36.06
50484;BME280;36409;52.168;20.878;2023-04-20T12:32:11;100821.30;;;22.41;35.63
50484;BME280;36409;52.168;20.878;2023-04-20T12:34:43;100824.40;;;22.17;35.82
50484;BME280;36409;52.168;20.878;2023-04-20T12:37:15;100821.21;;;21.94;35.63
50484;BME280;36409;52.168;20.878;2023-04-20T12:39:47;100820.66;;;21.71;35.67
50484;BME280;36409;52.168;20.878;2023-04-20T12:42:19;100822.23;;;21.40;35.05
50484;BME280;36409;52.168;20.878;2023-04-20T12:44:54;100820.41;;;21.07;35.37
50484;BME280;36409;52.168;20.878;2023-04-20T12:47:26;100812.92;;;20.80;35.55
50484;BME280;36409;52.168;20.878;2023-04-20T12:50:01;100818.16;;;20.63;36.16
50484;BME280;36409;52.168;20.878;2023-04-20T12:52:36;100818.20;;;20.44;35.89
50484;BME280;36409;52.168;20.878;2023-04-20T12:55:10;100814.80;;;20.23;36.05
50484;BME280;36409;52.168;20.878;2023-04-20T12:57:42;100820.03;;;20.05;35.93
50484;BME280;36409;52.168;20.878;2023-04-20T13:00:15;100816.17;;;19.93;36.02
50484;BME280;36409;52.168;20.878;2023-04-20T13:02:48;100810.40;;;19.83;36.47
50484;BME280;36409;52.168;20.878;2023-04-20T13:05:21;100809.64;;;19.81;36.32
50484;BME280;36409;52.168;20.878;2023-04-20T13:07:53;100801.42;;;19.87;36.12
50484;BME280;36409;52.168;20.878;2023-04-20T13:10:26;100796.00;;;20.10;36.67
50484;BME280;36409;52.168;20.878;2023-04-20T13:13:00;100787.62;;;20.36;36.63
50484;BME280;36409;52.168;20.878;2023-04-20T13:15:38;100783.63;;;20.64;36.42
50484;BME280;36409;52.168;20.878;2023-04-20T13:18:10;100791.09;;;20.93;36.16
50484;BME280;36409;52.168;20.878;2023-04-20T13:20:44;100788.02;;;21.18;36.10